Terminal Aerodrome Forecast
Issued by NWS

Home | Current Version | Previous Version | Graphics & Text | Print | Product List | Glossary On
Versions: 1 2 3 4 5 6 7 8 9 10 11 12 13 14 15
790
FTUS43 KBIS 201738
TAFJMS
TAF
KJMS 201738Z 2018/2118 17013KT P6SM SKC
     FM210200 14007KT P6SM BKN200
     FM210500 17006KT P6SM SCT250
     FM210900 VRB04KT P6SM SCT200
     FM211000 17005KT P6SM SCT200=

USA.gov is the U.S. government's official web portal to all federal, state and local government web resources and services.